sensor_id;sensor_type;location;lat;lon;timestamp;temperature;humidity
11045;DHT22;9786;42.714;23.272;2024-03-06T00:01:51;5.70;84.10
11045;DHT22;9786;42.714;23.272;2024-03-06T00:04:20;5.70;83.70
11045;DHT22;9786;42.714;23.272;2024-03-06T00:06:49;5.70;83.50
11045;DHT22;9786;42.714;23.272;2024-03-06T00:09:19;5.80;83.60
11045;DHT22;9786;42.714;23.272;2024-03-06T00:11:49;5.90;83.50
11045;DHT22;9786;42.714;23.272;2024-03-06T00:14:21;6.00;83.20
11045;DHT22;9786;42.714;23.272;2024-03-06T00:16:51;6.10;82.90
11045;DHT22;9786;42.714;23.272;2024-03-06T00:19:20;6.10;82.50
11045;DHT22;9786;42.714;23.272;2024-03-06T00:21:49;6.00;82.80
11045;DHT22;9786;42.714;23.272;2024-03-06T00:24:19;6.00;82.70
11045;DHT22;9786;42.714;23.272;2024-03-06T00:26:48;6.00;82.60
11045;DHT22;9786;42.714;23.272;2024-03-06T00:29:20;6.10;82.70
11045;DHT22;9786;42.714;23.272;2024-03-06T00:31:49;6.10;82.80
11045;DHT22;9786;42.714;23.272;2024-03-06T00:34:19;6.10;82.60
11045;DHT22;9786;42.714;23.272;2024-03-06T00:36:48;6.10;82.30
11045;DHT22;9786;42.714;23.272;2024-03-06T00:39:18;6.10;82.60
11045;DHT22;9786;42.714;23.272;2024-03-06T00:41:48;6.10;82.40
11045;DHT22;9786;42.714;23.272;2024-03-06T00:44:22;6.10;82.40
11045;DHT22;9786;42.714;23.272;2024-03-06T00:46:52;6.10;82.20
11045;DHT22;9786;42.714;23.272;2024-03-06T00:49:21;6.10;82.10
11045;DHT22;9786;42.714;23.272;2024-03-06T00:51:51;6.10;82.20
11045;DHT22;9786;42.714;23.272;2024-03-06T00:54:20;6.10;82.20
11045;DHT22;9786;42.714;23.272;2024-03-06T00:56:51;6.00;82.30
11045;DHT22;9786;42.714;23.272;2024-03-06T00:59:22;6.00;82.40
11045;DHT22;9786;42.714;23.272;2024-03-06T01:01:53;6.00;82.60
11045;DHT22;9786;42.714;23.272;2024-03-06T01:04:23;5.90;82.80
11045;DHT22;9786;42.714;23.272;2024-03-06T01:06:52;5.90;83.00
11045;DHT22;9786;42.714;23.272;2024-03-06T01:09:21;5.80;83.00
11045;DHT22;9786;42.714;23.272;2024-03-06T01:11:50;5.70;83.00
11045;DHT22;9786;42.714;23.272;2024-03-06T01:14:19;5.70;83.00
11045;DHT22;9786;42.714;23.272;2024-03-06T01:16:51;5.70;83.80
11045;DHT22;9786;42.714;23.272;2024-03-06T01:19:20;5.70;83.40
11045;DHT22;9786;42.714;23.272;2024-03-06T01:21:50;5.70;83.50
11045;DHT22;9786;42.714;23.272;2024-03-06T01:24:20;5.70;83.60
11045;DHT22;9786;42.714;23.272;2024-03-06T01:26:48;5.70;83.70
11045;DHT22;9786;42.714;23.272;2024-03-06T01:29:19;5.60;83.50
11045;DHT22;9786;42.714;23.272;2024-03-06T01:31:49;5.60;83.20
11045;DHT22;9786;42.714;23.272;2024-03-06T01:34:20;5.50;82.60
11045;DHT22;9786;42.714;23.272;2024-03-06T01:36:55;5.40;82.70
11045;DHT22;9786;42.714;23.272;2024-03-06T01:39:24;5.30;82.20
11045;DHT22;9786;42.714;23.272;2024-03-06T01:41:53;5.30;82.80
11045;DHT22;9786;42.714;23.272;2024-03-06T01:44:22;5.20;82.80
11045;DHT22;9786;42.714;23.272;2024-03-06T01:46:53;5.00;83.40
11045;DHT22;9786;42.714;23.272;2024-03-06T01:49:26;5.00;86.10
11045;DHT22;9786;42.714;23.272;2024-03-06T01:52:10;5.00;85.50
11045;DHT22;9786;42.714;23.272;2024-03-06T01:54:42;5.10;84.20
11045;DHT22;9786;42.714;23.272;2024-03-06T01:57:17;5.10;83.90
11045;DHT22;9786;42.714;23.272;2024-03-06T01:59:49;5.10;83.80
11045;DHT22;9786;42.714;23.272;2024-03-06T02:03:06;5.10;83.70
11045;DHT22;9786;42.714;23.272;2024-03-06T02:05:37;5.20;83.70
11045;DHT22;9786;42.714;23.272;2024-03-06T02:08:07;5.20;83.60
11045;DHT22;9786;42.714;23.272;2024-03-06T02:10:37;5.20;83.60
11045;DHT22;9786;42.714;23.272;2024-03-06T02:13:06;5.30;83.90
11045;DHT22;9786;42.714;23.272;2024-03-06T02:15:35;5.30;84.50
11045;DHT22;9786;42.714;23.272;2024-03-06T02:18:05;5.30;83.80
11045;DHT22;9786;42.714;23.272;2024-03-06T02:20:39;5.30;83.00
11045;DHT22;9786;42.714;23.272;2024-03-06T02:23:08;5.30;82.80
11045;DHT22;9786;42.714;23.272;2024-03-06T02:25:38;5.30;82.50
11045;DHT22;9786;42.714;23.272;2024-03-06T02:28:08;5.30;82.60
11045;DHT22;9786;42.714;23.272;2024-03-06T02:30:37;5.20;82.60
11045;DHT22;9786;42.714;23.272;2024-03-06T02:33:07;5.20;82.90
11045;DHT22;9786;42.714;23.272;2024-03-06T02:35:36;5.10;82.80
11045;DHT22;9786;42.714;23.272;2024-03-06T02:38:08;5.00;82.90
11045;DHT22;9786;42.714;23.272;2024-03-06T02:40:37;4.90;83.40
11045;DHT22;9786;42.714;23.272;2024-03-06T02:43:06;4.90;83.70
11045;DHT22;9786;42.714;23.272;2024-03-06T02:45:35;4.80;84.20
11045;DHT22;9786;42.714;23.272;2024-03-06T02:48:06;4.60;84.80
11045;DHT22;9786;42.714;23.272;2024-03-06T02:50:35;4.50;85.10
11045;DHT22;9786;42.714;23.272;2024-03-06T02:53:04;4.40;85.10
11045;DHT22;9786;42.714;23.272;2024-03-06T02:55:34;4.40;85.60
11045;DHT22;9786;42.714;23.272;2024-03-06T02:58:03;4.30;85.40
11045;DHT22;9786;42.714;23.272;2024-03-06T03:00:33;4.40;86.00
11045;DHT22;9786;42.714;23.272;2024-03-06T03:03:05;4.50;85.50
11045;DHT22;9786;42.714;23.272;2024-03-06T03:05:33;4.50;85.00
11045;DHT22;9786;42.714;23.272;2024-03-06T03:08:04;4.50;85.00
11045;DHT22;9786;42.714;23.272;2024-03-06T03:10:35;4.60;84.60
11045;DHT22;9786;42.714;23.272;2024-03-06T03:13:04;4.50;84.30
11045;DHT22;9786;42.714;23.272;2024-03-06T03:15:34;4.50;84.30
11045;DHT22;9786;42.714;23.272;2024-03-06T03:18:02;4.50;84.40
11045;DHT22;9786;42.714;23.272;2024-03-06T03:20:32;4.50;84.70
11045;DHT22;9786;42.714;23.272;2024-03-06T03:23:01;4.50;84.70
11045;DHT22;9786;42.714;23.272;2024-03-06T03:25:30;4.50;84.40
11045;DHT22;9786;42.714;23.272;2024-03-06T03:28:01;4.40;84.70
11045;DHT22;9786;42.714;23.272;2024-03-06T03:30:31;4.40;84.60
11045;DHT22;9786;42.714;23.272;2024-03-06T03:33:01;4.40;84.70
11045;DHT22;9786;42.714;23.272;2024-03-06T03:35:31;4.40;84.80
11045;DHT22;9786;42.714;23.272;2024-03-06T03:38:00;4.40;84.60
11045;DHT22;9786;42.714;23.272;2024-03-06T03:40:30;4.40;84.80
11045;DHT22;9786;42.714;23.272;2024-03-06T03:43:04;4.40;84.60
11045;DHT22;9786;42.714;23.272;2024-03-06T03:45:34;4.30;84.70
11045;DHT22;9786;42.714;23.272;2024-03-06T03:48:06;4.30;84.80
11045;DHT22;9786;42.714;23.272;2024-03-06T03:50:35;4.30;84.90
11045;DHT22;9786;42.714;23.272;2024-03-06T03:53:04;4.20;84.80
11045;DHT22;9786;42.714;23.272;2024-03-06T03:55:34;4.10;85.00
11045;DHT22;9786;42.714;23.272;2024-03-06T03:58:04;4.10;85.00
11045;DHT22;9786;42.714;23.272;2024-03-06T04:00:34;4.00;85.20
11045;DHT22;9786;42.714;23.272;2024-03-06T04:03:03;3.90;85.60
11045;DHT22;9786;42.714;23.272;2024-03-06T04:05:33;3.90;85.80
11045;DHT22;9786;42.714;23.272;2024-03-06T04:08:02;3.80;86.00
11045;DHT22;9786;42.714;23.272;2024-03-06T04:10:34;3.70;86.70
11045;DHT22;9786;42.714;23.272;2024-03-06T04:13:06;3.70;86.70
11045;DHT22;9786;42.714;23.272;2024-03-06T04:15:35;3.80;86.40
11045;DHT22;9786;42.714;23.272;2024-03-06T04:18:04;3.80;86.20
11045;DHT22;9786;42.714;23.272;2024-03-06T04:20:33;3.80;86.10
11045;DHT22;9786;42.714;23.272;2024-03-06T04:23:02;3.80;86.00
11045;DHT22;9786;42.714;23.272;2024-03-06T04:25:34;3.80;86.10
11045;DHT22;9786;42.714;23.272;2024-03-06T04:28:07;3.70;86.20
11045;DHT22;9786;42.714;23.272;2024-03-06T04:30:36;3.80;85.90
11045;DHT22;9786;42.714;23.272;2024-03-06T04:33:05;3.80;85.70
11045;DHT22;9786;42.714;23.272;2024-03-06T04:35:33;3.90;85.60
11045;DHT22;9786;42.714;23.272;2024-03-06T04:38:03;3.90;85.40
11045;DHT22;9786;42.714;23.272;2024-03-06T04:40:34;3.90;85.10
11045;DHT22;9786;42.714;23.272;2024-03-06T04:43:02;4.00;85.20
11045;DHT22;9786;42.714;23.272;2024-03-06T04:45:33;4.00;85.30
11045;DHT22;9786;42.714;23.272;2024-03-06T04:48:07;4.00;85.20
11045;DHT22;9786;42.714;23.272;2024-03-06T04:50:36;4.00;85.30
11045;DHT22;9786;42.714;23.272;2024-03-06T04:53:05;4.00;85.10
11045;DHT22;9786;42.714;23.272;2024-03-06T04:55:34;4.00;85.30
11045;DHT22;9786;42.714;23.272;2024-03-06T04:58:04;4.00;85.10
11045;DHT22;9786;42.714;23.272;2024-03-06T05:00:35;4.00;85.40
11045;DHT22;9786;42.714;23.272;2024-03-06T05:03:03;4.00;85.60
11045;DHT22;9786;42.714;23.272;2024-03-06T05:05:51;4.00;86.00
11045;DHT22;9786;42.714;23.272;2024-03-06T05:08:37;4.10;85.80
11045;DHT22;9786;42.714;23.272;2024-03-06T05:11:24;4.10;85.60
11045;DHT22;9786;42.714;23.272;2024-03-06T05:14:38;4.20;85.60
11045;DHT22;9786;42.714;23.272;2024-03-06T05:17:26;4.20;85.90
11045;DHT22;9786;42.714;23.272;2024-03-06T05:20:20;4.20;86.00
11045;DHT22;9786;42.714;23.272;2024-03-06T05:36:43;4.90;84.40
11045;DHT22;9786;42.714;23.272;2024-03-06T05:39:31;4.80;84.40
11045;DHT22;9786;42.714;23.272;2024-03-06T05:42:17;4.90;84.60
11045;DHT22;9786;42.714;23.272;2024-03-06T05:45:28;5.00;84.50
11045;DHT22;9786;42.714;23.272;2024-03-06T05:52:18;5.00;84.20
11045;DHT22;9786;42.714;23.272;2024-03-06T05:58:41;4.80;85.90
11045;DHT22;9786;42.714;23.272;2024-03-06T06:01:15;4.80;85.90
11045;DHT22;9786;42.714;23.272;2024-03-06T06:03:48;4.80;86.30
11045;DHT22;9786;42.714;23.272;2024-03-06T06:06:17;4.80;86.20
11045;DHT22;9786;42.714;23.272;2024-03-06T06:08:49;4.80;86.00
11045;DHT22;9786;42.714;23.272;2024-03-06T06:11:18;4.90;86.00
11045;DHT22;9786;42.714;23.272;2024-03-06T06:13:48;4.90;86.20
11045;DHT22;9786;42.714;23.272;2024-03-06T06:16:18;4.90;86.50
11045;DHT22;9786;42.714;23.272;2024-03-06T06:18:46;4.90;86.20
11045;DHT22;9786;42.714;23.272;2024-03-06T06:21:16;5.10;86.10
11045;DHT22;9786;42.714;23.272;2024-03-06T06:23:46;5.30;85.10
11045;DHT22;9786;42.714;23.272;2024-03-06T06:26:17;5.60;84.70
11045;DHT22;9786;42.714;23.272;2024-03-06T06:28:48;5.90;83.30
11045;DHT22;9786;42.714;23.272;2024-03-06T06:31:17;6.20;82.40
11045;DHT22;9786;42.714;23.272;2024-03-06T06:33:47;6.50;81.50
11045;DHT22;9786;42.714;23.272;2024-03-06T06:36:16;6.60;80.60
11045;DHT22;9786;42.714;23.272;2024-03-06T06:38:45;6.70;79.80
11045;DHT22;9786;42.714;23.272;2024-03-06T06:41:14;6.90;79.80
11045;DHT22;9786;42.714;23.272;2024-03-06T06:43:45;6.90;79.20
11045;DHT22;9786;42.714;23.272;2024-03-06T06:46:14;7.20;79.40
11045;DHT22;9786;42.714;23.272;2024-03-06T06:48:45;7.40;77.50
11045;DHT22;9786;42.714;23.272;2024-03-06T06:51:15;7.90;75.90
11045;DHT22;9786;42.714;23.272;2024-03-06T06:53:45;8.50;75.70
11045;DHT22;9786;42.714;23.272;2024-03-06T06:56:14;8.50;74.80
11045;DHT22;9786;42.714;23.272;2024-03-06T06:58:44;8.80;72.30
11045;DHT22;9786;42.714;23.272;2024-03-06T07:01:13;8.50;72.50
11045;DHT22;9786;42.714;23.272;2024-03-06T07:03:44;8.80;72.10
11045;DHT22;9786;42.714;23.272;2024-03-06T07:06:14;9.20;71.50
11045;DHT22;9786;42.714;23.272;2024-03-06T07:08:43;9.20;70.50
11045;DHT22;9786;42.714;23.272;2024-03-06T07:11:12;9.40;70.40
11045;DHT22;9786;42.714;23.272;2024-03-06T07:13:41;8.70;69.70
11045;DHT22;9786;42.714;23.272;2024-03-06T07:16:13;9.10;70.80
11045;DHT22;9786;42.714;23.272;2024-03-06T07:18:42;9.00;71.00
11045;DHT22;9786;42.714;23.272;2024-03-06T07:21:11;8.70;70.90
11045;DHT22;9786;42.714;23.272;2024-03-06T07:23:41;8.90;71.00
11045;DHT22;9786;42.714;23.272;2024-03-06T07:26:10;9.50;70.90
11045;DHT22;9786;42.714;23.272;2024-03-06T07:28:39;9.80;69.70
11045;DHT22;9786;42.714;23.272;2024-03-06T07:31:08;9.80;67.90
11045;DHT22;9786;42.714;23.272;2024-03-06T07:33:38;10.10;68.50
11045;DHT22;9786;42.714;23.272;2024-03-06T07:36:07;9.80;68.60
11045;DHT22;9786;42.714;23.272;2024-03-06T07:38:37;9.90;68.90
11045;DHT22;9786;42.714;23.272;2024-03-06T07:41:08;10.30;67.90
11045;DHT22;9786;42.714;23.272;2024-03-06T07:43:38;10.90;66.40
11045;DHT22;9786;42.714;23.272;2024-03-06T07:46:06;11.20;65.20
11045;DHT22;9786;42.714;23.272;2024-03-06T07:48:42;11.00;65.00
11045;DHT22;9786;42.714;23.272;2024-03-06T07:51:11;10.70;65.60
11045;DHT22;9786;42.714;23.272;2024-03-06T07:53:41;10.70;65.50
11045;DHT22;9786;42.714;23.272;2024-03-06T07:56:10;10.70;65.60
11045;DHT22;9786;42.714;23.272;2024-03-06T07:58:40;11.20;65.60
11045;DHT22;9786;42.714;23.272;2024-03-06T08:01:12;10.90;65.30
11045;DHT22;9786;42.714;23.272;2024-03-06T08:03:42;10.90;66.00
11045;DHT22;9786;42.714;23.272;2024-03-06T08:06:11;10.60;65.30
11045;DHT22;9786;42.714;23.272;2024-03-06T08:08:43;10.90;65.50
11045;DHT22;9786;42.714;23.272;2024-03-06T08:11:13;11.00;65.40
11045;DHT22;9786;42.714;23.272;2024-03-06T08:13:44;11.10;64.80
11045;DHT22;9786;42.714;23.272;2024-03-06T08:16:14;11.40;63.80
11045;DHT22;9786;42.714;23.272;2024-03-06T08:18:46;11.60;63.90
11045;DHT22;9786;42.714;23.272;2024-03-06T08:21:16;11.70;62.70
11045;DHT22;9786;42.714;23.272;2024-03-06T08:23:45;11.70;62.10
11045;DHT22;9786;42.714;23.272;2024-03-06T08:26:15;12.20;61.10
11045;DHT22;9786;42.714;23.272;2024-03-06T08:28:44;12.20;61.40
11045;DHT22;9786;42.714;23.272;2024-03-06T08:31:14;12.70;60.20
11045;DHT22;9786;42.714;23.272;2024-03-06T08:33:47;12.50;60.00
11045;DHT22;9786;42.714;23.272;2024-03-06T08:36:16;12.80;59.10
11045;DHT22;9786;42.714;23.272;2024-03-06T08:38:45;13.40;58.50
11045;DHT22;9786;42.714;23.272;2024-03-06T08:41:14;14.20;56.70
11045;DHT22;9786;42.714;23.272;2024-03-06T08:43:43;14.60;55.20
11045;DHT22;9786;42.714;23.272;2024-03-06T08:46:13;14.50;54.80
11045;DHT22;9786;42.714;23.272;2024-03-06T08:48:42;13.40;54.30
11045;DHT22;9786;42.714;23.272;2024-03-06T08:51:13;13.70;56.40
11045;DHT22;9786;42.714;23.272;2024-03-06T08:53:43;13.70;56.60
11045;DHT22;9786;42.714;23.272;2024-03-06T08:56:12;14.10;57.10
11045;DHT22;9786;42.714;23.272;2024-03-06T08:58:43;14.30;56.80
11045;DHT22;9786;42.714;23.272;2024-03-06T09:01:13;14.10;55.40
11045;DHT22;9786;42.714;23.272;2024-03-06T09:03:43;14.40;55.70
11045;DHT22;9786;42.714;23.272;2024-03-06T09:06:14;14.10;55.00
11045;DHT22;9786;42.714;23.272;2024-03-06T09:08:44;14.70;55.00
11045;DHT22;9786;42.714;23.272;2024-03-06T09:11:15;14.50;54.30
11045;DHT22;9786;42.714;23.272;2024-03-06T09:13:44;14.90;53.10
11045;DHT22;9786;42.714;23.272;2024-03-06T09:16:14;15.50;53.50
11045;DHT22;9786;42.714;23.272;2024-03-06T09:18:43;15.60;52.60
11045;DHT22;9786;42.714;23.272;2024-03-06T09:21:14;16.40;50.10
11045;DHT22;9786;42.714;23.272;2024-03-06T09:23:47;16.60;48.60
11045;DHT22;9786;42.714;23.272;2024-03-06T09:26:19;15.70;49.40
11045;DHT22;9786;42.714;23.272;2024-03-06T09:28:49;16.60;49.80
11045;DHT22;9786;42.714;23.272;2024-03-06T09:31:19;16.70;49.00
11045;DHT22;9786;42.714;23.272;2024-03-06T09:33:48;17.20;48.90
11045;DHT22;9786;42.714;23.272;2024-03-06T09:36:19;16.80;48.20
11045;DHT22;9786;42.714;23.272;2024-03-06T09:38:48;16.50;49.10
11045;DHT22;9786;42.714;23.272;2024-03-06T09:41:18;16.40;48.80
11045;DHT22;9786;42.714;23.272;2024-03-06T09:43:49;16.70;48.60
11045;DHT22;9786;42.714;23.272;2024-03-06T09:46:19;15.60;50.90
11045;DHT22;9786;42.714;23.272;2024-03-06T09:48:49;15.80;50.00
11045;DHT22;9786;42.714;23.272;2024-03-06T09:51:22;15.90;50.30
11045;DHT22;9786;42.714;23.272;2024-03-06T09:53:52;16.40;49.60
11045;DHT22;9786;42.714;23.272;2024-03-06T09:56:21;17.10;48.40
11045;DHT22;9786;42.714;23.272;2024-03-06T09:58:50;17.30;46.00
11045;DHT22;9786;42.714;23.272;2024-03-06T10:01:25;17.30;45.30
11045;DHT22;9786;42.714;23.272;2024-03-06T10:03:56;17.00;45.70
11045;DHT22;9786;42.714;23.272;2024-03-06T10:06:29;17.40;46.50
11045;DHT22;9786;42.714;23.272;2024-03-06T10:09:03;17.40;45.30
11045;DHT22;9786;42.714;23.272;2024-03-06T10:11:39;17.90;45.10
11045;DHT22;9786;42.714;23.272;2024-03-06T10:14:10;17.80;43.60
11045;DHT22;9786;42.714;23.272;2024-03-06T10:16:52;17.50;44.00
11045;DHT22;9786;42.714;23.272;2024-03-06T10:19:23;17.80;43.90
11045;DHT22;9786;42.714;23.272;2024-03-06T10:21:57;17.40;43.20
11045;DHT22;9786;42.714;23.272;2024-03-06T10:24:28;17.90;44.90
11045;DHT22;9786;42.714;23.272;2024-03-06T10:26:58;17.60;42.80
11045;DHT22;9786;42.714;23.272;2024-03-06T10:29:29;17.80;43.20
11045;DHT22;9786;42.714;23.272;2024-03-06T10:31:59;17.90;44.10
11045;DHT22;9786;42.714;23.272;2024-03-06T10:34:28;18.20;43.10
11045;DHT22;9786;42.714;23.272;2024-03-06T10:37:02;18.70;42.10
11045;DHT22;9786;42.714;23.272;2024-03-06T10:39:33;18.50;40.50
11045;DHT22;9786;42.714;23.272;2024-03-06T10:42:07;18.00;42.10
11045;DHT22;9786;42.714;23.272;2024-03-06T10:44:40;18.20;41.90
11045;DHT22;9786;42.714;23.272;2024-03-06T10:47:13;18.20;42.40
11045;DHT22;9786;42.714;23.272;2024-03-06T10:49:45;17.70;42.10
11045;DHT22;9786;42.714;23.272;2024-03-06T10:52:21;18.00;43.00
11045;DHT22;9786;42.714;23.272;2024-03-06T10:54:51;18.10;42.50
11045;DHT22;9786;42.714;23.272;2024-03-06T10:57:20;18.40;42.10
11045;DHT22;9786;42.714;23.272;2024-03-06T10:59:50;18.50;42.20
11045;DHT22;9786;42.714;23.272;2024-03-06T11:02:22;18.50;41.20
11045;DHT22;9786;42.714;23.272;2024-03-06T11:04:52;18.00;41.00
11045;DHT22;9786;42.714;23.272;2024-03-06T11:07:25;18.10;41.70
11045;DHT22;9786;42.714;23.272;2024-03-06T11:09:58;18.10;42.60
11045;DHT22;9786;42.714;23.272;2024-03-06T11:12:39;18.20;40.40
11045;DHT22;9786;42.714;23.272;2024-03-06T11:15:10;18.30;40.40
11045;DHT22;9786;42.714;23.272;2024-03-06T11:17:39;18.30;40.60
11045;DHT22;9786;42.714;23.272;2024-03-06T11:20:16;18.30;40.50
11045;DHT22;9786;42.714;23.272;2024-03-06T11:23:04;18.60;39.90
11045;DHT22;9786;42.714;23.272;2024-03-06T11:26:02;17.80;39.90
11045;DHT22;9786;42.714;23.272;2024-03-06T11:28:33;18.50;38.80
11045;DHT22;9786;42.714;23.272;2024-03-06T11:31:04;18.70;40.70
11045;DHT22;9786;42.714;23.272;2024-03-06T11:33:37;18.70;38.90
11045;DHT22;9786;42.714;23.272;2024-03-06T11:36:19;18.40;38.20
11045;DHT22;9786;42.714;23.272;2024-03-06T11:38:57;18.50;40.50
11045;DHT22;9786;42.714;23.272;2024-03-06T11:41:28;18.60;38.90
11045;DHT22;9786;42.714;23.272;2024-03-06T11:44:00;18.50;39.00
11045;DHT22;9786;42.714;23.272;2024-03-06T11:46:43;18.90;39.60
11045;DHT22;9786;42.714;23.272;2024-03-06T11:49:16;18.20;39.50
11045;DHT22;9786;42.714;23.272;2024-03-06T11:51:53;18.00;38.90
11045;DHT22;9786;42.714;23.272;2024-03-06T11:54:29;18.10;39.40
11045;DHT22;9786;42.714;23.272;2024-03-06T11:57:03;17.60;40.50
11045;DHT22;9786;42.714;23.272;2024-03-06T11:59:34;18.10;40.70
11045;DHT22;9786;42.714;23.272;2024-03-06T12:02:06;18.50;40.80
11045;DHT22;9786;42.714;23.272;2024-03-06T12:04:38;17.90;39.60
11045;DHT22;9786;42.714;23.272;2024-03-06T12:07:08;16.50;40.60
11045;DHT22;9786;42.714;23.272;2024-03-06T12:09:39;15.90;42.40
11045;DHT22;9786;42.714;23.272;2024-03-06T12:12:10;15.70;43.50
11045;DHT22;9786;42.714;23.272;2024-03-06T12:14:40;15.20;44.20
11045;DHT22;9786;42.714;23.272;2024-03-06T12:17:12;15.60;44.20
11045;DHT22;9786;42.714;23.272;2024-03-06T12:19:44;15.30;43.90
11045;DHT22;9786;42.714;23.272;2024-03-06T12:22:14;15.50;44.40
11045;DHT22;9786;42.714;23.272;2024-03-06T12:24:44;16.10;44.40
11045;DHT22;9786;42.714;23.272;2024-03-06T12:27:13;16.20;42.80
11045;DHT22;9786;42.714;23.272;2024-03-06T12:29:42;15.90;42.50
11045;DHT22;9786;42.714;23.272;2024-03-06T12:32:17;16.10;43.40
11045;DHT22;9786;42.714;23.272;2024-03-06T12:34:57;15.90;43.40
11045;DHT22;9786;42.714;23.272;2024-03-06T12:37:32;15.40;47.90
11045;DHT22;9786;42.714;23.272;2024-03-06T12:40:06;15.20;50.40
11045;DHT22;9786;42.714;23.272;2024-03-06T12:42:41;14.70;51.50
11045;DHT22;9786;42.714;23.272;2024-03-06T12:45:11;14.10;53.60
11045;DHT22;9786;42.714;23.272;2024-03-06T12:47:41;14.00;55.30
11045;DHT22;9786;42.714;23.272;2024-03-06T12:50:11;14.10;55.70
11045;DHT22;9786;42.714;23.272;2024-03-06T12:52:43;13.90;56.40
11045;DHT22;9786;42.714;23.272;2024-03-06T12:55:15;14.00;56.50
11045;DHT22;9786;42.714;23.272;2024-03-06T12:57:47;14.10;55.90
11045;DHT22;9786;42.714;23.272;2024-03-06T13:00:20;14.20;54.10
11045;DHT22;9786;42.714;23.272;2024-03-06T13:02:50;14.40;54.20
11045;DHT22;9786;42.714;23.272;2024-03-06T13:05:19;14.10;53.50
11045;DHT22;9786;42.714;23.272;2024-03-06T13:07:49;13.90;53.10
11045;DHT22;9786;42.714;23.272;2024-03-06T13:10:20;13.90;53.70
11045;DHT22;9786;42.714;23.272;2024-03-06T13:12:50;14.00;52.90
11045;DHT22;9786;42.714;23.272;2024-03-06T13:15:20;14.20;52.10
11045;DHT22;9786;42.714;23.272;2024-03-06T13:17:49;13.90;52.10
11045;DHT22;9786;42.714;23.272;2024-03-06T13:20:19;13.90;53.20
11045;DHT22;9786;42.714;23.272;2024-03-06T13:22:49;13.80;54.30
11045;DHT22;9786;42.714;23.272;2024-03-06T13:25:20;13.80;53.30
11045;DHT22;9786;42.714;23.272;2024-03-06T13:27:49;13.80;54.90
11045;DHT22;9786;42.714;23.272;2024-03-06T13:30:20;14.00;54.90
11045;DHT22;9786;42.714;23.272;2024-03-06T13:32:51;14.20;53.50
11045;DHT22;9786;42.714;23.272;2024-03-06T13:35:23;14.20;53.70
11045;DHT22;9786;42.714;23.272;2024-03-06T13:37:52;14.40;54.40
11045;DHT22;9786;42.714;23.272;2024-03-06T13:40:25;14.10;53.50
11045;DHT22;9786;42.714;23.272;2024-03-06T13:42:54;14.10;54.30
11045;DHT22;9786;42.714;23.272;2024-03-06T13:45:23;14.10;54.70
11045;DHT22;9786;42.714;23.272;2024-03-06T13:47:54;14.20;54.80
11045;DHT22;9786;42.714;23.272;2024-03-06T13:50:23;14.20;54.90
11045;DHT22;9786;42.714;23.272;2024-03-06T13:52:53;14.10;55.10
11045;DHT22;9786;42.714;23.272;2024-03-06T13:55:22;14.30;55.10
11045;DHT22;9786;42.714;23.272;2024-03-06T13:57:54;14.20;55.90
11045;DHT22;9786;42.714;23.272;2024-03-06T14:00:23;14.10;56.00
11045;DHT22;9786;42.714;23.272;2024-03-06T14:02:53;14.20;55.80
11045;DHT22;9786;42.714;23.272;2024-03-06T14:05:23;14.10;56.40
11045;DHT22;9786;42.714;23.272;2024-03-06T14:07:54;14.10;57.30
11045;DHT22;9786;42.714;23.272;2024-03-06T14:10:23;14.10;57.10
11045;DHT22;9786;42.714;23.272;2024-03-06T14:12:55;14.10;57.70
11045;DHT22;9786;42.714;23.272;2024-03-06T14:15:27;13.90;57.90
11045;DHT22;9786;42.714;23.272;2024-03-06T14:17:56;13.60;57.70
11045;DHT22;9786;42.714;23.272;2024-03-06T14:20:25;13.50;57.80
11045;DHT22;9786;42.714;23.272;2024-03-06T14:22:55;13.60;57.70
11045;DHT22;9786;42.714;23.272;2024-03-06T14:25:24;13.50;57.70
11045;DHT22;9786;42.714;23.272;2024-03-06T14:27:55;13.70;56.70
11045;DHT22;9786;42.714;23.272;2024-03-06T14:30:24;13.80;56.80
11045;DHT22;9786;42.714;23.272;2024-03-06T14:32:55;13.90;56.40
11045;DHT22;9786;42.714;23.272;2024-03-06T14:35:24;14.00;56.20
11045;DHT22;9786;42.714;23.272;2024-03-06T14:37:54;14.00;56.30
11045;DHT22;9786;42.714;23.272;2024-03-06T14:40:25;14.00;56.70
11045;DHT22;9786;42.714;23.272;2024-03-06T14:42:56;13.90;56.90
11045;DHT22;9786;42.714;23.272;2024-03-06T14:45:25;13.70;57.20
11045;DHT22;9786;42.714;23.272;2024-03-06T14:47:57;13.50;58.40
11045;DHT22;9786;42.714;23.272;2024-03-06T14:50:27;13.20;60.30
11045;DHT22;9786;42.714;23.272;2024-03-06T14:52:56;12.90;62.20
11045;DHT22;9786;42.714;23.272;2024-03-06T14:55:25;12.60;65.40
11045;DHT22;9786;42.714;23.272;2024-03-06T14:57:56;12.20;68.00
11045;DHT22;9786;42.714;23.272;2024-03-06T15:00:26;11.80;70.60
11045;DHT22;9786;42.714;23.272;2024-03-06T15:02:55;11.50;72.30
11045;DHT22;9786;42.714;23.272;2024-03-06T15:05:26;11.30;73.70
11045;DHT22;9786;42.714;23.272;2024-03-06T15:07:55;11.10;75.00
11045;DHT22;9786;42.714;23.272;2024-03-06T15:10:27;11.00;76.80
11045;DHT22;9786;42.714;23.272;2024-03-06T15:13:00;10.90;76.20
11045;DHT22;9786;42.714;23.272;2024-03-06T15:15:29;10.80;76.30
11045;DHT22;9786;42.714;23.272;2024-03-06T15:17:59;10.80;76.70
11045;DHT22;9786;42.714;23.272;2024-03-06T15:20:28;10.70;75.60
11045;DHT22;9786;42.714;23.272;2024-03-06T15:22:58;10.70;76.60
11045;DHT22;9786;42.714;23.272;2024-03-06T15:25:28;10.60;76.40
11045;DHT22;9786;42.714;23.272;2024-03-06T15:28:01;10.50;76.70
11045;DHT22;9786;42.714;23.272;2024-03-06T15:30:30;10.40;77.10
11045;DHT22;9786;42.714;23.272;2024-03-06T15:33:02;10.50;77.20
11045;DHT22;9786;42.714;23.272;2024-03-06T15:35:34;10.50;77.40
11045;DHT22;9786;42.714;23.272;2024-03-06T15:38:03;10.60;75.80
11045;DHT22;9786;42.714;23.272;2024-03-06T15:40:33;10.60;75.40
11045;DHT22;9786;42.714;23.272;2024-03-06T15:43:04;10.50;75.30
11045;DHT22;9786;42.714;23.272;2024-03-06T15:45:33;10.50;74.70
11045;DHT22;9786;42.714;23.272;2024-03-06T15:48:04;10.40;75.70
11045;DHT22;9786;42.714;23.272;2024-03-06T15:50:34;10.30;76.60
11045;DHT22;9786;42.714;23.272;2024-03-06T15:53:08;10.30;77.50
11045;DHT22;9786;42.714;23.272;2024-03-06T15:55:41;10.40;75.90
11045;DHT22;9786;42.714;23.272;2024-03-06T16:01:35;10.30;75.40
11045;DHT22;9786;42.714;23.272;2024-03-06T16:04:04;10.40;75.30
11045;DHT22;9786;42.714;23.272;2024-03-06T16:06:33;10.50;75.40
11045;DHT22;9786;42.714;23.272;2024-03-06T16:09:07;10.60;75.10
11045;DHT22;9786;42.714;23.272;2024-03-06T16:11:42;10.70;75.10
11045;DHT22;9786;42.714;23.272;2024-03-06T16:14:11;10.70;74.50
11045;DHT22;9786;42.714;23.272;2024-03-06T16:16:42;10.80;74.00
11045;DHT22;9786;42.714;23.272;2024-03-06T16:19:12;10.80;74.00
11045;DHT22;9786;42.714;23.272;2024-03-06T16:21:40;10.80;74.00
11045;DHT22;9786;42.714;23.272;2024-03-06T16:24:10;10.90;74.50
11045;DHT22;9786;42.714;23.272;2024-03-06T16:26:39;11.00;74.80
11045;DHT22;9786;42.714;23.272;2024-03-06T16:29:08;11.00;74.80